Time;durP1;ratioP1;P1;durP2;ratioP2;P2;SDS_P1;SDS_P2;PMS_P1;PMS_P2;Temp;Humidity;BMP_temperature;BMP_pressure;BME280_temperature;BME280_humidity;BME280_pressure;Samples;Min_cycle;Max_cycle;Signal;HPM_P1;HPM_P2
2023/04/09 00:01:10;;;;;;;;;8.25;7.25;;;;;19.63;34.42;101685.84;5078874;27;45328;-70
2023/04/09 00:03:37;;;;;;;;;8.00;6.50;;;;;19.69;34.37;101701.50;5090109;27;45479;-70
2023/04/09 00:06:03;;;;;;;;;8.75;7.00;;;;;19.68;34.73;101691.78;5058479;27;45408;-70
2023/04/09 00:08:29;;;;;;;;;10.00;7.00;;;;;19.68;34.70;101694.44;5056493;28;45288;-70
2023/04/09 00:10:54;;;;;;;;;9.00;7.50;;;;;19.66;34.77;101688.38;5061067;27;45566;-70
2023/04/09 00:13:20;;;;;;;;;8.00;6.00;;;;;19.68;34.57;101694.44;5072205;27;45485;-70
2023/04/09 00:15:45;;;;;;;;;10.50;8.50;;;;;19.67;34.61;101687.41;5078591;27;45292;-70
2023/04/09 00:18:11;;;;;;;;;13.00;8.25;;;;;19.65;34.80;101673.34;5064750;27;45238;-70
2023/04/09 00:20:37;;;;;;;;;9.75;8.00;;;;;19.66;34.90;101683.91;5078508;27;45222;-70
2023/04/09 00:23:02;;;;;;;;;8.75;8.75;;;;;19.65;34.48;101686.63;5060077;28;48131;-70
2023/04/09 00:25:27;;;;;;;;;9.00;7.50;;;;;19.64;34.47;101683.13;5064075;27;45590;-70
2023/04/09 00:27:54;;;;;;;;;10.50;9.50;;;;;19.65;34.52;101681.31;5060903;28;45485;-70
2023/04/09 00:30:20;;;;;;;;;9.00;9.00;;;;;19.65;34.50;101678.66;5072698;27;45421;-70
2023/04/09 00:32:45;;;;;;;;;10.75;9.25;;;;;19.66;34.43;101683.91;5073912;27;45321;-70
2023/04/09 00:35:11;;;;;;;;;10.75;9.00;;;;;19.64;34.39;101679.63;5076777;27;67451;-70
2023/04/09 00:37:36;;;;;;;;;8.00;7.25;;;;;19.65;34.57;101676.00;5079365;27;45500;-70
2023/04/09 00:40:02;;;;;;;;;7.75;7.75;;;;;19.63;34.36;101673.41;5083527;27;67460;-70
2023/04/09 00:42:31;;;;;;;;;6.25;6.00;;;;;19.63;34.58;101673.41;5067168;27;46710;-70
2023/04/09 00:44:56;;;;;;;;;9.00;7.25;;;;;19.65;34.65;101670.69;5098054;27;45774;-70
2023/04/09 00:47:21;;;;;;;;;8.00;6.75;;;;;19.65;34.59;101676.00;5082341;27;66156;-70
2023/04/09 00:49:47;;;;;;;;;9.00;9.00;;;;;19.63;34.73;101676.06;5054496;28;74351;-70
2023/04/09 00:52:12;;;;;;;;;9.00;8.25;;;;;19.62;34.44;101670.84;5083613;27;45417;-70
2023/04/09 00:54:37;;;;;;;;;8.00;7.25;;;;;19.61;34.64;101663.84;5097575;27;62950;-70
2023/04/09 00:57:03;;;;;;;;;9.50;8.00;;;;;19.62;34.57;101671.72;5057755;28;68119;-70
2023/04/09 00:59:29;;;;;;;;;9.50;7.25;;;;;19.60;34.81;101664.75;5064684;27;45444;-70
2023/04/09 01:01:54;;;;;;;;;11.00;7.25;;;;;19.61;34.89;101667.34;5083047;27;75590;-70
2023/04/09 01:04:20;;;;;;;;;10.25;7.00;;;;;19.60;34.88;101667.41;5067225;28;45319;-70
2023/04/09 01:06:55;;;;;;;;;8.00;8.00;;;;;19.64;34.47;101674.31;5062856;28;45414;-70
2023/04/09 01:09:27;;;;;;;;;10.75;9.00;;;;;19.60;34.81;101662.09;5066029;27;45515;-70
2023/04/09 01:11:52;;;;;;;;;9.25;9.00;;;;;19.62;34.65;101666.41;5061258;28;47185;-70
2023/04/09 01:14:29;;;;;;;;;9.67;6.67;;;;;19.61;34.25;101661.19;5085612;27;45673;-70
2023/04/09 01:17:03;;;;;;;;;8.75;7.00;;;;;19.60;34.59;101660.31;5084674;27;45429;-71
2023/04/09 01:19:41;;;;;;;;;9.75;8.75;;;;;19.61;34.81;101664.69;5073821;27;45499;-71
2023/04/09 01:22:13;;;;;;;;;11.00;8.25;;;;;19.61;34.60;101664.69;5078759;27;47910;-70
2023/04/09 01:25:17;;;;;;;;;9.75;9.25;;;;;19.62;34.45;101668.19;5047157;28;45338;-70
2023/04/09 01:28:09;;;;;;;;;9.75;7.25;;;;;19.60;34.59;101667.41;5043173;28;45551;-70
2023/04/09 01:30:35;;;;;;;;;9.50;8.75;;;;;19.60;34.50;101667.41;5068265;27;45648;-70
2023/04/09 01:33:00;;;;;;;;;10.50;9.25;;;;;19.58;34.92;101667.47;5074524;27;58335;-71
2023/04/09 01:35:27;;;;;;;;;8.75;8.00;;;;;19.58;34.66;101653.34;5074224;27;49598;-70
2023/04/09 01:37:53;;;;;;;;;10.25;7.00;;;;;19.59;34.45;101661.25;5074899;28;66536;-70
2023/04/09 01:40:18;;;;;;;;;11.00;8.00;;;;;19.57;34.80;101656.97;5076203;27;45583;-70
2023/04/09 01:42:44;;;;;;;;;7.50;7.25;;;;;19.56;34.52;101652.56;5078084;27;57933;-70
2023/04/09 01:45:10;;;;;;;;;7.00;7.00;;;;;19.60;34.45;101656.78;5054171;27;64445;-70
2023/04/09 01:47:37;;;;;;;;;10.00;9.00;;;;;19.58;34.78;101658.66;5055320;28;45340;-70
2023/04/09 01:50:02;;;;;;;;;9.00;8.25;;;;;19.57;34.92;101651.66;5076264;28;65389;-70
2023/04/09 01:52:28;;;;;;;;;11.25;8.75;;;;;19.56;34.94;101645.47;5075715;27;46400;-70
2023/04/09 01:54:53;;;;;;;;;11.00;8.25;;;;;19.57;34.53;101646.34;5065814;27;46062;-70
2023/04/09 01:57:19;;;;;;;;;8.75;8.50;;;;;19.54;34.91;101644.69;5082746;27;63937;-71
2023/04/09 01:59:44;;;;;;;;;9.25;8.25;;;;;19.59;34.58;101645.31;5059642;27;45911;-70
2023/04/09 02:02:15;;;;;;;;;7.25;7.00;;;;;19.54;34.73;101640.22;5094535;27;48774;-70
2023/04/09 02:04:46;;;;;;;;;8.25;7.00;;;;;19.55;34.60;101646.41;5069717;28;45396;-70
2023/04/09 02:07:37;;;;;;;;;8.75;7.50;;;;;19.56;34.77;101642.81;5081968;27;45254;-70
2023/04/09 02:10:04;;;;;;;;;10.75;8.25;;;;;19.57;34.76;101641.88;5077805;27;45482;-70
2023/04/09 02:12:31;;;;;;;;;7.75;6.25;;;;;19.53;34.52;101637.69;5069752;27;45546;-70
2023/04/09 02:14:56;;;;;;;;;8.50;7.25;;;;;19.54;34.70;101634.06;5074556;28;45861;-70
2023/04/09 02:17:22;;;;;;;;;10.50;9.25;;;;;19.53;34.75;101630.56;5076333;27;45254;-70
2023/04/09 02:19:47;;;;;;;;;12.50;9.25;;;;;19.53;34.45;101630.56;5055963;28;62366;-70
2023/04/09 02:22:14;;;;;;;;;10.00;8.00;;;;;19.54;34.64;101628.75;5064861;27;46423;-70
2023/04/09 02:24:40;;;;;;;;;9.25;9.25;;;;;19.56;34.96;101631.34;5066277;28;45458;-70
2023/04/09 02:27:06;;;;;;;;;14.25;9.75;;;;;19.54;34.70;101628.75;5049819;27;45506;-70
2023/04/09 02:29:32;;;;;;;;;9.00;7.25;;;;;19.53;34.61;101616.44;5081887;27;45344;-70
2023/04/09 02:31:57;;;;;;;;;10.25;8.25;;;;;19.52;34.60;101618.22;5076111;27;46449;-70
2023/04/09 02:34:22;;;;;;;;;11.00;9.00;;;;;19.55;34.98;101619.88;5065869;27;45760;-70
2023/04/09 02:36:48;;;;;;;;;9.25;8.50;;;;;19.54;34.63;101618.13;5064233;27;45293;-71
2023/04/09 02:39:13;;;;;;;;;8.75;7.25;;;;;19.54;34.49;101615.47;5064587;27;73179;-70
2023/04/09 02:41:39;;;;;;;;;9.25;9.00;;;;;19.52;34.65;101612.91;5078976;27;53652;-70
2023/04/09 02:44:04;;;;;;;;;10.25;9.00;;;;;19.53;34.73;101611.97;5064885;27;45309;-70
2023/04/09 02:46:29;;;;;;;;;11.50;9.25;;;;;19.53;34.83;101614.63;5068837;27;58145;-70
2023/04/09 02:48:55;;;;;;;;;9.00;8.25;;;;;19.50;34.50;101608.63;5082678;27;45441;-70
2023/04/09 02:51:20;;;;;;;;;9.75;8.25;;;;;19.49;34.51;101596.25;5078559;27;46074;-70
2023/04/09 02:53:46;;;;;;;;;12.75;9.75;;;;;19.52;34.66;101610.25;5064953;27;45326;-70
2023/04/09 02:56:11;;;;;;;;;10.00;7.75;;;;;19.51;34.72;101611.19;5098433;27;54280;-70
2023/04/09 02:58:36;;;;;;;;;8.75;8.75;;;;;19.52;34.49;101610.25;5098654;27;55708;-70
2023/04/09 03:01:02;;;;;;;;;8.75;7.00;;;;;19.49;34.86;101606.88;5093656;27;62784;-70
2023/04/09 03:03:27;;;;;;;;;9.00;9.00;;;;;19.53;34.71;101603.16;5086288;27;45365;-70
2023/04/09 03:05:53;;;;;;;;;8.00;7.00;;;;;19.51;34.82;101599.69;5070930;27;45526;-70
2023/04/09 03:08:18;;;;;;;;;9.50;8.00;;;;;19.51;34.57;101603.22;5081415;27;66960;-70
2023/04/09 03:10:43;;;;;;;;;10.25;8.50;;;;;19.52;34.88;101593.47;5052594;27;73105;-70
2023/04/09 03:13:09;;;;;;;;;9.50;6.25;;;;;19.50;34.64;101596.19;5059075;28;62884;-70
2023/04/09 03:15:34;;;;;;;;;8.50;6.50;;;;;19.52;34.77;101590.81;5074391;27;63215;-70
2023/04/09 03:17:59;;;;;;;;;7.50;7.50;;;;;19.51;34.55;101591.72;5074527;27;45420;-70
2023/04/09 03:20:25;;;;;;;;;10.50;8.00;;;;;19.50;34.78;101596.19;5078814;27;72532;-70
2023/04/09 03:22:50;;;;;;;;;8.00;6.75;;;;;19.51;34.98;101594.38;5065543;28;45265;-70
2023/04/09 03:25:18;;;;;;;;;8.75;8.50;;;;;19.50;34.76;101588.22;5083707;27;45457;-70
2023/04/09 03:27:43;;;;;;;;;10.00;8.25;;;;;19.48;34.61;101587.44;5070498;28;45252;-70
2023/04/09 03:30:09;;;;;;;;;7.75;7.00;;;;;19.49;34.75;101588.31;5081296;27;66177;-70
2023/04/09 03:32:34;;;;;;;;;8.75;8.25;;;;;19.50;34.59;101588.22;5069660;28;45484;-70
2023/04/09 03:35:00;;;;;;;;;9.00;7.75;;;;;19.50;35.14;101588.22;5093746;27;68050;-70
2023/04/09 03:37:25;;;;;;;;;11.50;8.50;;;;;19.50;34.80;101582.91;5069008;28;60160;-71
2023/04/09 03:39:50;;;;;;;;;8.50;7.25;;;;;19.50;34.49;101590.88;5075781;27;55447;-70
2023/04/09 03:42:16;;;;;;;;;12.25;9.75;;;;;19.48;34.81;101586.59;5060233;27;70634;-70
2023/04/09 03:44:41;;;;;;;;;8.50;8.50;;;;;19.48;34.66;101583.94;5081498;27;50241;-70
2023/04/09 03:47:06;;;;;;;;;9.75;9.00;;;;;19.48;34.90;101579.50;5076940;27;72195;-70
2023/04/09 03:49:34;;;;;;;;;11.50;9.00;;;;;19.50;34.83;101579.41;5076388;27;47444;-70
2023/04/09 03:51:59;;;;;;;;;8.00;7.50;;;;;19.46;34.82;101576.06;5075853;27;45411;-70
2023/04/09 03:54:28;;;;;;;;;9.75;8.50;;;;;19.47;34.77;101575.09;5078727;27;45578;-71
2023/04/09 03:56:53;;;;;;;;;10.25;7.50;;;;;19.47;34.88;101577.75;5100020;27;45305;-70
2023/04/09 03:59:19;;;;;;;;;9.25;7.50;;;;;19.46;35.06;101572.53;5061774;27;61909;-70
2023/04/09 04:01:44;;;;;;;;;9.25;9.00;;;;;19.46;34.69;101573.41;5093165;27;62324;-70
2023/04/09 04:04:09;;;;;;;;;12.00;9.50;;;;;19.46;35.01;101569.88;5078553;27;45171;-70
2023/04/09 04:06:35;;;;;;;;;9.00;7.25;;;;;19.45;34.78;101569.00;5069158;28;60480;-70
2023/04/09 04:09:00;;;;;;;;;12.75;8.00;;;;;19.47;34.72;101580.41;5079607;27;45391;-70
2023/04/09 04:11:25;;;;;;;;;12.25;9.50;;;;;19.44;34.57;101572.63;5071577;28;70239;-70
2023/04/09 04:13:51;;;;;;;;;8.50;7.75;;;;;19.47;34.71;101576.91;5055981;28;45254;-70
2023/04/09 04:16:16;;;;;;;;;9.75;9.00;;;;;19.47;34.90;101566.28;5064002;28;45244;-70
2023/04/09 04:18:41;;;;;;;;;11.50;10.00;;;;;19.45;34.90;101558.41;5080680;27;71727;-70
2023/04/09 04:21:14;;;;;;;;;11.25;10.50;;;;;19.45;34.75;101563.69;5078525;28;45615;-70
2023/04/09 04:23:40;;;;;;;;;9.75;8.25;;;;;19.47;34.73;101560.97;5068102;27;45304;-71
2023/04/09 04:26:08;;;;;;;;;9.50;9.00;;;;;19.40;34.63;101549.81;5067101;28;45360;-70
2023/04/09 04:28:34;;;;;;;;;10.25;8.50;;;;;19.44;34.96;101559.34;5066881;27;45401;-70
2023/04/09 04:31:00;;;;;;;;;9.00;8.50;;;;;19.45;34.91;101570.81;5075375;28;45492;-70
2023/04/09 04:33:25;;;;;;;;;11.75;9.75;;;;;19.45;34.81;101565.50;5075824;27;45347;-70
2023/04/09 04:35:50;;;;;;;;;11.50;10.75;;;;;19.43;34.75;101567.38;5070893;27;45419;-70
2023/04/09 04:38:16;;;;;;;;;10.25;9.75;;;;;19.43;34.71;101567.38;5067029;27;47160;-70
2023/04/09 04:40:41;;;;;;;;;13.50;10.50;;;;;19.43;34.85;101570.03;5089686;27;45387;-70
2023/04/09 04:43:06;;;;;;;;;12.50;10.50;;;;;19.43;34.80;101565.59;5080967;27;45461;-70
2023/04/09 04:45:32;;;;;;;;;11.00;9.00;;;;;19.43;34.60;101573.56;5080709;28;45608;-70
2023/04/09 04:47:57;;;;;;;;;9.25;8.25;;;;;19.45;34.80;101573.47;5078707;27;47117;-70
2023/04/09 04:50:22;;;;;;;;;13.00;9.00;;;;;19.43;34.95;101572.69;5079969;27;50953;-70
2023/04/09 04:52:48;;;;;;;;;8.25;7.25;;;;;19.42;34.79;101579.78;5064213;27;68441;-70
2023/04/09 04:55:13;;;;;;;;;12.25;10.00;;;;;19.44;34.90;101579.72;5079735;27;45477;-70
2023/04/09 04:57:38;;;;;;;;;10.50;10.00;;;;;19.43;34.88;101581.50;5097088;27;46279;-70
2023/04/09 05:00:04;;;;;;;;;13.00;10.25;;;;;19.40;34.60;101578.16;5093759;27;65927;-70
2023/04/09 05:02:29;;;;;;;;;10.50;9.25;;;;;19.39;34.90;101579.06;5072074;27;45992;-70
2023/04/09 05:04:55;;;;;;;;;14.50;10.25;;;;;19.44;34.91;101585.91;5084095;27;45359;-70
2023/04/09 05:07:20;;;;;;;;;11.00;10.75;;;;;19.43;34.85;101586.81;5083881;27;47150;-70
2023/04/09 05:09:45;;;;;;;;;12.00;10.25;;;;;19.42;34.90;101592.19;5080425;27;52400;-70
2023/04/09 05:12:11;;;;;;;;;9.50;8.75;;;;;19.39;34.65;101593.22;5102722;27;45260;-70
2023/04/09 05:14:36;;;;;;;;;13.50;11.50;;;;;19.42;35.10;101595.72;5077548;27;45350;-70
2023/04/09 05:17:02;;;;;;;;;8.75;8.75;;;;;19.41;34.84;101590.50;5076888;27;46288;-70
2023/04/09 05:19:27;;;;;;;;;10.75;10.75;;;;;19.40;34.72;101594.94;5066703;28;67936;-70
2023/04/09 05:21:52;;;;;;;;;14.00;11.25;;;;;19.38;35.00;101591.50;5094353;27;63979;-70
2023/04/09 05:24:18;;;;;;;;;12.75;9.25;;;;;19.40;34.67;101591.44;5064912;27;73785;-70
2023/04/09 05:26:43;;;;;;;;;11.00;11.00;;;;;19.38;35.00;101594.16;5078813;27;60232;-69
2023/04/09 05:29:08;;;;;;;;;13.00;11.25;;;;;19.39;34.71;101593.22;5082801;27;65075;-70
2023/04/09 05:31:34;;;;;;;;;11.75;10.00;;;;;19.41;34.85;101604.63;5065624;27;63878;-70
2023/04/09 05:33:59;;;;;;;;;10.00;8.50;;;;;19.39;34.88;101600.31;5098745;27;68048;-70
2023/04/09 05:36:25;;;;;;;;;10.00;10.00;;;;;19.38;34.87;101604.78;5071018;27;46230;-70
2023/04/09 05:38:50;;;;;;;;;10.75;10.50;;;;;19.39;34.84;101602.97;5082465;27;45253;-71
2023/04/09 05:41:15;;;;;;;;;11.50;8.75;;;;;19.39;34.68;101608.28;5079914;27;45427;-70
2023/04/09 05:43:41;;;;;;;;;12.75;11.00;;;;;19.36;35.07;101604.00;5074756;27;53676;-70
2023/04/09 05:46:07;;;;;;;;;10.00;10.00;;;;;19.38;34.81;101606.56;5074823;28;46893;-70
2023/04/09 05:48:35;;;;;;;;;12.50;11.00;;;;;19.39;35.02;101614.47;5077946;27;70731;-70
2023/04/09 05:51:00;;;;;;;;;15.25;13.00;;;;;19.38;34.96;101612.72;5079981;27;45391;-70
2023/04/09 05:53:25;;;;;;;;;12.25;11.00;;;;;19.40;34.84;101615.31;5074123;27;56871;-70
2023/04/09 05:55:51;;;;;;;;;12.25;11.00;;;;;19.37;34.87;101604.84;5062045;28;72755;-70
2023/04/09 05:58:20;;;;;;;;;10.25;10.25;;;;;19.38;34.84;101610.09;5063685;28;56133;-70
2023/04/09 06:00:45;;;;;;;;;12.75;11.25;;;;;19.39;35.02;101610.94;5064188;27;45540;-70
2023/04/09 06:03:10;;;;;;;;;11.25;10.25;;;;;19.36;34.96;101614.63;5075134;27;45263;-70
2023/04/09 06:05:36;;;;;;;;;15.25;12.00;;;;;19.38;34.95;101619.84;5064682;28;56363;-70
2023/04/09 06:08:01;;;;;;;;;10.00;8.75;;;;;19.38;34.87;101614.53;5067873;28;45293;-70
2023/04/09 06:10:26;;;;;;;;;12.00;11.00;;;;;19.37;35.02;101626.97;5063651;28;64090;-70
2023/04/09 06:12:52;;;;;;;;;12.25;12.00;;;;;19.36;34.58;101622.56;5068054;27;69323;-70
2023/04/09 06:15:17;;;;;;;;;12.00;10.00;;;;;19.37;34.79;101618.13;5064726;28;75640;-70
2023/04/09 06:17:45;;;;;;;;;10.75;10.25;;;;;19.33;34.80;101618.25;5067188;28;45244;-70
2023/04/09 06:20:11;;;;;;;;;10.75;8.00;;;;;19.37;35.07;101626.06;5085106;27;45427;-70
2023/04/09 06:22:36;;;;;;;;;11.75;10.00;;;;;19.35;35.11;101627.03;5063243;27;71912;-70
2023/04/09 06:25:02;;;;;;;;;11.50;10.50;;;;;19.35;34.94;101626.16;5063716;28;74404;-70
2023/04/09 06:27:27;;;;;;;;;15.50;11.50;;;;;19.37;34.50;101631.38;5068043;27;45578;-70
2023/04/09 06:29:52;;;;;;;;;10.75;9.50;;;;;19.37;34.98;101629.63;5093612;27;45308;-70
2023/04/09 06:32:18;;;;;;;;;12.00;9.50;;;;;19.36;34.79;101627.88;5089905;27;45469;-70
2023/04/09 06:34:43;;;;;;;;;10.25;10.25;;;;;19.34;34.84;101624.44;5068325;28;53543;-70
2023/04/09 06:37:08;;;;;;;;;13.00;11.25;;;;;19.35;34.90;101632.34;5082767;27;45397;-70
2023/04/09 06:39:34;;;;;;;;;13.25;11.00;;;;;19.35;34.90;101628.81;5068734;28;45367;-70
2023/04/09 06:41:59;;;;;;;;;11.75;10.25;;;;;19.36;35.05;101622.56;5086510;27;63449;-70
2023/04/09 06:44:25;;;;;;;;;18.00;11.00;;;;;19.33;34.51;101620.91;5082915;27;46310;-70
2023/04/09 06:46:50;;;;;;;;;15.25;10.00;;;;;19.34;34.76;101625.31;5058915;27;48205;-70
2023/04/09 06:49:15;;;;;;;;;12.25;11.50;;;;;19.35;35.10;101623.50;5064249;27;46060;-70
2023/04/09 06:51:41;;;;;;;;;13.75;9.25;;;;;19.33;34.82;101622.72;5090639;27;62345;-70
2023/04/09 06:54:06;;;;;;;;;11.75;9.50;;;;;19.34;34.71;101625.31;5061761;28;56113;-70
2023/04/09 06:56:32;;;;;;;;;17.50;13.00;;;;;19.36;34.86;101633.19;5060206;27;45300;-70
2023/04/09 06:58:58;;;;;;;;;11.00;10.00;;;;;19.32;34.96;101629.84;5082930;27;45326;-70
2023/04/09 07:01:24;;;;;;;;;12.50;11.25;;;;;19.34;34.80;101629.75;5093327;27;67868;-70
2023/04/09 07:03:49;;;;;;;;;12.00;10.50;;;;;19.34;35.06;101629.75;5082675;27;45501;-70
2023/04/09 07:06:15;;;;;;;;;15.75;11.00;;;;;19.34;34.97;101630.59;5071667;27;45327;-70
2023/04/09 07:08:40;;;;;;;;;12.25;11.50;;;;;19.33;34.96;101628.88;5076864;27;45357;-70
2023/04/09 07:11:05;;;;;;;;;15.00;10.00;;;;;19.33;34.93;101630.69;5056674;27;69234;-70
2023/04/09 07:13:31;;;;;;;;;16.25;13.50;;;;;19.32;35.08;101627.19;5074661;27;71863;-70
2023/04/09 07:15:57;;;;;;;;;16.00;10.75;;;;;19.33;34.99;101628.88;5075336;28;45242;-70
2023/04/09 07:18:22;;;;;;;;;11.25;10.75;;;;;19.34;35.10;101627.94;5074167;27;45280;-70
2023/04/09 07:20:47;;;;;;;;;10.75;9.50;;;;;19.33;34.77;101633.34;5087452;27;66625;-70
2023/04/09 07:23:13;;;;;;;;;12.75;11.00;;;;;19.33;34.73;101628.88;5093894;27;59105;-70
2023/04/09 07:25:38;;;;;;;;;15.00;10.25;;;;;19.32;34.68;101627.19;5088265;27;67150;-70
2023/04/09 07:28:03;;;;;;;;;11.50;10.50;;;;;19.32;34.96;101621.88;5092114;27;59564;-70
2023/04/09 07:30:29;;;;;;;;;9.00;9.00;;;;;19.32;35.11;101627.19;5075927;27;45454;-70
2023/04/09 07:32:54;;;;;;;;;13.25;10.50;;;;;19.31;34.79;101628.09;5058987;27;46839;-70
2023/04/09 07:35:20;;;;;;;;;12.75;11.75;;;;;19.35;34.94;101629.69;5056978;27;45367;-70
2023/04/09 07:37:45;;;;;;;;;12.50;11.25;;;;;19.31;34.84;101620.13;5076358;27;45396;-70
2023/04/09 07:40:11;;;;;;;;;10.00;9.75;;;;;19.34;34.91;101627.09;5089756;27;72615;-70
2023/04/09 07:42:37;;;;;;;;;12.00;11.25;;;;;19.31;34.89;101625.44;5097023;27;45965;-70
2023/04/09 07:45:03;;;;;;;;;13.75;10.00;;;;;19.31;34.68;101628.09;5071635;27;45742;-70
2023/04/09 07:47:29;;;;;;;;;14.25;11.50;;;;;19.33;35.15;101628.03;5085535;27;45320;-70
2023/04/09 07:49:54;;;;;;;;;17.50;13.25;;;;;19.33;34.96;101634.19;5084986;27;45556;-70
2023/04/09 07:52:19;;;;;;;;;13.25;11.75;;;;;19.33;35.16;101636.00;5084258;27;45929;-70
2023/04/09 07:54:45;;;;;;;;;12.25;11.00;;;;;19.33;34.82;101630.69;5059347;27;45693;-70
2023/04/09 07:57:10;;;;;;;;;13.25;10.75;;;;;19.34;34.89;101635.06;5103218;27;52124;-70
2023/04/09 07:59:36;;;;;;;;;13.25;11.50;;;;;19.33;35.11;101628.88;5055449;28;68292;-70
2023/04/09 08:02:01;;;;;;;;;14.00;13.00;;;;;19.34;34.87;101627.94;5078457;28;45251;-70
2023/04/09 08:04:27;;;;;;;;;14.75;12.75;;;;;19.32;34.88;101623.66;5074218;27;45447;-70
2023/04/09 08:06:52;;;;;;;;;14.00;13.75;;;;;19.34;34.96;101635.91;5073018;28;67768;-70
2023/04/09 08:09:19;;;;;;;;;14.50;10.50;;;;;19.32;35.06;101629.84;5075591;27;45561;-70
2023/04/09 08:11:46;;;;;;;;;16.50;14.00;;;;;19.34;34.87;101635.91;5079464;27;45487;-70
2023/04/09 08:14:12;;;;;;;;;12.50;12.25;;;;;19.33;34.83;101623.56;5078341;27;45420;-70
2023/04/09 08:16:41;;;;;;;;;11.00;9.25;;;;;19.34;35.26;101630.59;5079353;27;45296;-70
2023/04/09 08:19:07;;;;;;;;;16.50;11.25;;;;;19.33;34.87;101633.34;5057089;28;45220;-70
2023/04/09 08:21:33;;;;;;;;;11.50;11.50;;;;;19.33;35.07;101633.34;5103127;27;45644;-70
2023/04/09 08:24:03;;;;;;;;;20.50;12.75;;;;;19.34;34.86;101638.56;5079155;27;45510;-70
2023/04/09 08:26:28;;;;;;;;;15.25;12.50;;;;;19.34;35.07;101633.25;5081020;27;45474;-70
2023/04/09 08:28:54;;;;;;;;;12.75;12.75;;;;;19.36;34.78;101638.50;5066875;27;45353;-70
2023/04/09 08:31:19;;;;;;;;;14.00;11.00;;;;;19.34;34.96;101635.91;5059922;27;45990;-71
2023/04/09 08:33:45;;;;;;;;;14.50;12.25;;;;;19.34;35.11;101633.25;5062025;27;45290;-70
2023/04/09 08:36:11;;;;;;;;;13.25;11.50;;;;;19.33;35.06;101633.34;5069703;28;45303;-70
2023/04/09 08:38:36;;;;;;;;;14.25;13.00;;;;;19.34;34.95;101629.75;5082900;27;45643;-70
2023/04/09 08:41:02;;;;;;;;;14.00;10.50;;;;;19.36;35.37;101630.53;5095484;27;51471;-70
2023/04/09 08:43:27;;;;;;;;;13.75;12.50;;;;;19.37;34.88;101632.28;5067048;27;45778;-70
2023/04/09 08:45:56;;;;;;;;;14.00;11.00;;;;;19.34;34.90;101625.31;5083785;27;65387;-70
2023/04/09 08:48:23;;;;;;;;;11.75;10.50;;;;;19.34;35.02;101625.31;5073628;27;45285;-70
2023/04/09 08:50:48;;;;;;;;;15.00;12.50;;;;;19.33;35.27;101618.25;5061921;27;74466;-70
2023/04/09 08:53:14;;;;;;;;;12.50;11.00;;;;;19.36;35.31;101622.56;5079048;27;45293;-70
2023/04/09 08:55:39;;;;;;;;;13.00;11.25;;;;;19.37;34.96;101621.66;5079506;27;66038;-70
2023/04/09 08:58:09;;;;;;;;;13.25;12.50;;;;;19.35;34.87;101613.75;5078469;27;60136;-70
2023/04/09 09:00:35;;;;;;;;;13.50;13.00;;;;;19.34;34.91;101620.00;5058801;28;47361;-70
2023/04/09 09:03:13;;;;;;;;;13.50;10.00;;;;;19.38;34.73;101619.84;5068116;27;45427;-70
2023/04/09 09:05:43;;;;;;;;;12.25;11.00;;;;;19.36;35.02;101609.31;5095951;27;45254;-70
2023/04/09 09:08:13;;;;;;;;;12.25;11.75;;;;;19.37;35.03;101605.72;5076261;27;45534;-70
2023/04/09 09:10:43;;;;;;;;;12.75;10.00;;;;;19.38;34.80;101606.56;5081742;27;45511;-70
2023/04/09 09:13:22;;;;;;;;;12.75;11.00;;;;;19.35;35.08;101595.19;5072743;28;45516;-70
2023/04/09 09:15:54;;;;;;;;;11.00;10.00;;;;;19.38;34.96;101598.63;5100477;27;45450;-70
2023/04/09 09:18:20;;;;;;;;;11.00;11.00;;;;;19.40;35.05;101605.53;5071874;28;45438;-70
2023/04/09 09:20:45;;;;;;;;;12.00;9.50;;;;;19.39;35.30;101595.00;5101068;27;45548;-70
2023/04/09 09:23:11;;;;;;;;;13.50;12.00;;;;;19.38;35.44;101599.47;5079128;27;45374;-70
2023/04/09 09:25:37;;;;;;;;;11.50;9.50;;;;;19.41;35.26;101601.13;5062901;28;45333;-70
2023/04/09 09:28:11;;;;;;;;;12.75;10.00;;;;;19.39;34.93;101601.19;5062955;28;45494;-70
2023/04/09 09:30:38;;;;;;;;;12.75;10.00;;;;;19.40;34.97;101605.53;5076923;27;45396;-70
2023/04/09 09:33:08;;;;;;;;;9.00;8.50;;;;;19.41;35.06;101604.63;5064647;27;45875;-70
2023/04/09 09:35:50;;;;;;;;;10.50;9.50;;;;;19.39;35.27;101593.22;5059959;27;45473;-70
2023/04/09 09:38:17;;;;;;;;;13.00;10.00;;;;;19.41;35.24;101588.69;5076406;28;45732;-70
2023/04/09 09:40:42;;;;;;;;;13.00;10.75;;;;;19.37;35.32;101587.16;5081551;27;45581;-70
2023/04/09 09:43:08;;;;;;;;;9.50;9.00;;;;;19.42;34.99;101586.91;5079749;27;45432;-70
2023/04/09 09:45:35;;;;;;;;;12.00;9.00;;;;;19.42;35.11;101584.25;5081671;27;45442;-70
2023/04/09 09:48:01;;;;;;;;;10.25;10.25;;;;;19.40;35.27;101580.81;5058311;27;45503;-70
2023/04/09 09:50:29;;;;;;;;;9.50;8.00;;;;;19.42;35.09;101573.63;5063372;27;48030;-70
2023/04/09 09:53:03;;;;;;;;;8.75;8.25;;;;;19.41;35.16;101578.09;5069566;28;45194;-70
2023/04/09 09:55:34;;;;;;;;;11.50;7.50;;;;;19.41;35.25;101575.44;5061800;27;45363;-70
2023/04/09 09:58:18;;;;;;;;;8.25;7.25;;;;;19.44;35.07;101580.59;5079486;27;45359;-70
2023/04/09 10:00:46;;;;;;;;;10.00;10.00;;;;;19.44;35.09;101580.59;5080135;27;45441;-70
2023/04/09 10:03:20;;;;;;;;;10.00;10.00;;;;;19.46;35.50;101577.81;5058905;27;46069;-70
2023/04/09 10:05:47;;;;;;;;;12.75;11.00;;;;;19.45;34.99;101578.78;5080354;27;45561;-70
2023/04/09 10:08:13;;;;;;;;;10.25;8.50;;;;;19.43;35.22;101565.59;5066227;27;45430;-70
2023/04/09 10:10:41;;;;;;;;;10.50;8.75;;;;;19.44;35.32;101575.28;5070175;28;45436;-70
2023/04/09 10:13:09;;;;;;;;;8.75;8.50;;;;;19.44;35.06;101569.09;5085626;27;45177;-70
2023/04/09 10:15:35;;;;;;;;;8.00;7.50;;;;;19.44;35.09;101572.63;5069418;28;45414;-70
2023/04/09 10:18:00;;;;;;;;;10.00;8.00;;;;;19.46;35.12;101567.22;5092208;27;45317;-70
2023/04/09 10:20:31;;;;;;;;;8.50;7.00;;;;;19.46;35.07;101569.88;5073859;27;45399;-70
2023/04/09 10:23:00;;;;;;;;;9.50;6.50;;;;;19.47;35.33;101571.59;5062948;28;45763;-70
2023/04/09 10:25:27;;;;;;;;;12.25;7.75;;;;;19.45;35.30;101560.19;5077444;27;45339;-70
2023/04/09 10:28:13;;;;;;;;;8.75;8.00;;;;;19.47;35.19;101563.63;5066816;28;45620;-70
2023/04/09 10:30:39;;;;;;;;;9.50;8.50;;;;;19.46;35.09;101561.91;5076385;27;46672;-70
2023/04/09 10:33:13;;;;;;;;;8.00;8.00;;;;;19.48;35.12;101562.72;5056606;28;71296;-70
2023/04/09 10:35:38;;;;;;;;;9.00;9.00;;;;;19.47;34.98;101561.81;5086237;27;45445;-70
2023/04/09 10:38:07;;;;;;;;;8.00;7.00;;;;;19.48;35.16;101560.91;5072234;27;45308;-70
2023/04/09 10:40:32;;;;;;;;;9.25;7.50;;;;;19.46;35.18;101567.22;5072571;28;45576;-70
2023/04/09 10:42:58;;;;;;;;;13.50;8.75;;;;;19.46;35.02;101556.59;5057862;27;72738;-70
2023/04/09 10:45:25;;;;;;;;;12.75;8.25;;;;;19.47;35.21;101567.13;5093232;27;65393;-70
2023/04/09 10:47:50;;;;;;;;;10.00;7.50;;;;;19.46;35.05;101560.13;5078381;27;45686;-70
2023/04/09 10:50:24;;;;;;;;;8.00;7.00;;;;;19.48;35.21;101544.13;5076471;27;46310;-70
2023/04/09 10:52:55;;;;;;;;;9.50;8.50;;;;;19.48;35.26;101544.97;5072637;28;45339;-70
2023/04/09 10:55:39;;;;;;;;;7.75;6.25;;;;;19.49;35.17;101546.66;5052472;28;45528;-70
2023/04/09 10:58:06;;;;;;;;;10.00;7.25;;;;;19.49;35.26;101544.03;5059089;27;45375;-70
2023/04/09 11:00:36;;;;;;;;;10.00;8.25;;;;;19.46;35.01;101538.88;5068306;27;45348;-70
2023/04/09 11:03:01;;;;;;;;;7.00;7.00;;;;;19.50;35.19;101543.09;5079774;27;45990;-70
2023/04/09 11:05:35;;;;;;;;;9.33;6.33;;;;;19.49;35.19;101543.16;5077257;27;45358;-70
2023/04/09 11:08:11;;;;;;;;;9.75;8.00;;;;;19.51;35.03;101546.59;5074108;27;45366;-70
2023/04/09 11:10:38;;;;;;;;;9.25;7.50;;;;;19.51;35.05;101546.59;5082235;27;46410;-70
2023/04/09 11:13:04;;;;;;;;;8.00;7.75;;;;;19.45;35.12;101550.44;5058607;27;45773;-70
2023/04/09 11:15:31;;;;;;;;;5.00;5.00;;;;;19.51;35.25;101546.59;5081244;27;45388;-70